sensor_id;sensor_type;location;lat;lon;timestamp;P1;durP1;ratioP1;P2;durP2;ratioP2
44606;SDS011;30315;46.072;14.474;2023-06-10T00:02:25;3.38;;;3.08;;
44606;SDS011;30315;46.072;14.474;2023-06-10T00:04:54;6.43;;;3.17;;
44606;SDS011;30315;46.072;14.474;2023-06-10T00:07:21;3.30;;;3.00;;
44606;SDS011;30315;46.072;14.474;2023-06-10T00:09:48;3.95;;;3.17;;
44606;SDS011;30315;46.072;14.474;2023-06-10T00:12:16;3.90;;;3.13;;
44606;SDS011;30315;46.072;14.474;2023-06-10T00:14:44;3.30;;;2.92;;
44606;SDS011;30315;46.072;14.474;2023-06-10T00:17:13;3.33;;;2.93;;
44606;SDS011;30315;46.072;14.474;2023-06-10T00:19:41;6.28;;;3.13;;
44606;SDS011;30315;46.072;14.474;2023-06-10T00:22:10;3.40;;;3.20;;
44606;SDS011;30315;46.072;14.474;2023-06-10T00:24:38;3.05;;;2.88;;
44606;SDS011;30315;46.072;14.474;2023-06-10T00:27:05;3.00;;;2.80;;
44606;SDS011;30315;46.072;14.474;2023-06-10T00:29:33;3.30;;;3.10;;
44606;SDS011;30315;46.072;14.474;2023-06-10T00:32:00;3.38;;;2.75;;
44606;SDS011;30315;46.072;14.474;2023-06-10T00:34:28;3.40;;;3.10;;
44606;SDS011;30315;46.072;14.474;2023-06-10T00:36:57;3.50;;;3.30;;
44606;SDS011;30315;46.072;14.474;2023-06-10T00:39:24;3.42;;;3.17;;
44606;SDS011;30315;46.072;14.474;2023-06-10T00:41:51;3.42;;;3.03;;
44606;SDS011;30315;46.072;14.474;2023-06-10T00:44:18;3.95;;;3.65;;
44606;SDS011;30315;46.072;14.474;2023-06-10T00:46:45;3.35;;;2.80;;
44606;SDS011;30315;46.072;14.474;2023-06-10T00:49:14;3.30;;;3.10;;
44606;SDS011;30315;46.072;14.474;2023-06-10T00:51:41;6.32;;;3.60;;
44606;SDS011;30315;46.072;14.474;2023-06-10T00:54:09;6.75;;;3.72;;
44606;SDS011;30315;46.072;14.474;2023-06-10T00:56:40;3.47;;;3.28;;
44606;SDS011;30315;46.072;14.474;2023-06-10T00:59:09;6.95;;;3.90;;
44606;SDS011;30315;46.072;14.474;2023-06-10T01:01:36;3.78;;;3.47;;
44606;SDS011;30315;46.072;14.474;2023-06-10T01:04:04;6.97;;;3.58;;
44606;SDS011;30315;46.072;14.474;2023-06-10T01:09:33;3.55;;;3.35;;
44606;SDS011;30315;46.072;14.474;2023-06-10T01:15:16;5.60;;;5.10;;
44606;SDS011;30315;46.072;14.474;2023-06-10T01:17:57;7.20;;;4.85;;
44606;SDS011;30315;46.072;14.474;2023-06-10T01:20:26;4.50;;;4.10;;
44606;SDS011;30315;46.072;14.474;2023-06-10T01:22:56;4.90;;;4.47;;
44606;SDS011;30315;46.072;14.474;2023-06-10T01:25:24;4.93;;;3.73;;
44606;SDS011;30315;46.072;14.474;2023-06-10T01:30:50;4.05;;;3.65;;
44606;SDS011;30315;46.072;14.474;2023-06-10T01:33:29;5.28;;;4.00;;
44606;SDS011;30315;46.072;14.474;2023-06-10T01:35:59;3.90;;;3.63;;
44606;SDS011;30315;46.072;14.474;2023-06-10T01:38:36;4.53;;;4.18;;
44606;SDS011;30315;46.072;14.474;2023-06-10T01:41:07;8.18;;;4.18;;
44606;SDS011;30315;46.072;14.474;2023-06-10T01:43:37;3.95;;;3.65;;
44606;SDS011;30315;46.072;14.474;2023-06-10T01:46:06;4.95;;;4.13;;
44606;SDS011;30315;46.072;14.474;2023-06-10T01:48:33;4.88;;;3.58;;
44606;SDS011;30315;46.072;14.474;2023-06-10T01:51:00;4.57;;;3.83;;
44606;SDS011;30315;46.072;14.474;2023-06-10T01:53:27;3.88;;;3.47;;
44606;SDS011;30315;46.072;14.474;2023-06-10T01:55:54;4.45;;;3.15;;
44606;SDS011;30315;46.072;14.474;2023-06-10T01:58:22;4.47;;;3.67;;
44606;SDS011;30315;46.072;14.474;2023-06-10T02:00:49;4.82;;;4.35;;
44606;SDS011;30315;46.072;14.474;2023-06-10T02:03:16;5.72;;;5.22;;
44606;SDS011;30315;46.072;14.474;2023-06-10T02:05:43;5.00;;;4.15;;
44606;SDS011;30315;46.072;14.474;2023-06-10T02:08:10;4.30;;;3.90;;
44606;SDS011;30315;46.072;14.474;2023-06-10T02:10:37;7.65;;;4.53;;
44606;SDS011;30315;46.072;14.474;2023-06-10T02:13:04;3.90;;;3.60;;
44606;SDS011;30315;46.072;14.474;2023-06-10T02:15:32;4.88;;;4.35;;
44606;SDS011;30315;46.072;14.474;2023-06-10T02:17:59;3.92;;;3.55;;
44606;SDS011;30315;46.072;14.474;2023-06-10T02:23:23;4.03;;;3.72;;
44606;SDS011;30315;46.072;14.474;2023-06-10T02:25:50;4.60;;;3.88;;
44606;SDS011;30315;46.072;14.474;2023-06-10T02:28:17;4.60;;;3.83;;
44606;SDS011;30315;46.072;14.474;2023-06-10T02:30:44;4.22;;;3.92;;
44606;SDS011;30315;46.072;14.474;2023-06-10T02:33:13;5.00;;;3.78;;
44606;SDS011;30315;46.072;14.474;2023-06-10T02:35:42;3.88;;;3.67;;
44606;SDS011;30315;46.072;14.474;2023-06-10T02:38:09;4.32;;;3.80;;
44606;SDS011;30315;46.072;14.474;2023-06-10T02:40:36;4.47;;;4.13;;
44606;SDS011;30315;46.072;14.474;2023-06-10T02:43:03;4.30;;;3.90;;
44606;SDS011;30315;46.072;14.474;2023-06-10T02:45:31;4.45;;;3.55;;
44606;SDS011;30315;46.072;14.474;2023-06-10T02:48:00;3.97;;;3.58;;
44606;SDS011;30315;46.072;14.474;2023-06-10T02:50:28;4.25;;;3.85;;
44606;SDS011;30315;46.072;14.474;2023-06-10T02:53:13;4.50;;;4.10;;
44606;SDS011;30315;46.072;14.474;2023-06-10T02:55:46;4.50;;;4.13;;
44606;SDS011;30315;46.072;14.474;2023-06-10T02:58:16;4.63;;;4.20;;
44606;SDS011;30315;46.072;14.474;2023-06-10T03:00:43;7.22;;;4.47;;
44606;SDS011;30315;46.072;14.474;2023-06-10T03:03:12;4.43;;;4.03;;
44606;SDS011;30315;46.072;14.474;2023-06-10T03:05:59;4.30;;;3.90;;
44606;SDS011;30315;46.072;14.474;2023-06-10T03:08:27;4.38;;;3.85;;
44606;SDS011;30315;46.072;14.474;2023-06-10T03:10:56;4.18;;;3.78;;
44606;SDS011;30315;46.072;14.474;2023-06-10T03:13:23;4.45;;;4.15;;
44606;SDS011;30315;46.072;14.474;2023-06-10T03:15:50;5.47;;;4.22;;
44606;SDS011;30315;46.072;14.474;2023-06-10T03:18:20;4.60;;;4.20;;
44606;SDS011;30315;46.072;14.474;2023-06-10T03:20:50;9.15;;;4.38;;
44606;SDS011;30315;46.072;14.474;2023-06-10T03:23:21;4.72;;;4.32;;
44606;SDS011;30315;46.072;14.474;2023-06-10T03:25:50;4.60;;;4.20;;
44606;SDS011;30315;46.072;14.474;2023-06-10T03:28:19;4.30;;;4.00;;
44606;SDS011;30315;46.072;14.474;2023-06-10T03:30:46;4.78;;;4.10;;
44606;SDS011;30315;46.072;14.474;2023-06-10T03:33:14;5.68;;;3.95;;
44606;SDS011;30315;46.072;14.474;2023-06-10T03:35:42;4.80;;;4.43;;
44606;SDS011;30315;46.072;14.474;2023-06-10T03:38:11;5.00;;;4.50;;
44606;SDS011;30315;46.072;14.474;2023-06-10T03:40:39;4.72;;;4.28;;
44606;SDS011;30315;46.072;14.474;2023-06-10T03:43:06;4.57;;;4.18;;
44606;SDS011;30315;46.072;14.474;2023-06-10T03:45:34;4.93;;;4.53;;
44606;SDS011;30315;46.072;14.474;2023-06-10T03:48:03;4.93;;;4.22;;
44606;SDS011;30315;46.072;14.474;2023-06-10T03:50:40;4.60;;;4.20;;
44606;SDS011;30315;46.072;14.474;2023-06-10T03:53:07;5.25;;;4.75;;
44606;SDS011;30315;46.072;14.474;2023-06-10T03:55:36;5.68;;;4.45;;
44606;SDS011;30315;46.072;14.474;2023-06-10T03:58:03;4.70;;;4.30;;
44606;SDS011;30315;46.072;14.474;2023-06-10T04:00:30;4.38;;;3.97;;
44606;SDS011;30315;46.072;14.474;2023-06-10T04:03:08;5.15;;;4.70;;
44606;SDS011;30315;46.072;14.474;2023-06-10T04:05:40;4.85;;;4.45;;
44606;SDS011;30315;46.072;14.474;2023-06-10T04:08:08;5.10;;;4.70;;
44606;SDS011;30315;46.072;14.474;2023-06-10T04:10:35;4.57;;;4.28;;
44606;SDS011;30315;46.072;14.474;2023-06-10T04:13:02;4.93;;;4.60;;
44606;SDS011;30315;46.072;14.474;2023-06-10T04:15:36;4.78;;;4.28;;
44606;SDS011;30315;46.072;14.474;2023-06-10T04:18:07;5.03;;;4.72;;
44606;SDS011;30315;46.072;14.474;2023-06-10T04:20:35;4.82;;;4.43;;
44606;SDS011;30315;46.072;14.474;2023-06-10T04:23:02;4.50;;;4.20;;
44606;SDS011;30315;46.072;14.474;2023-06-10T04:25:30;5.72;;;4.82;;
44606;SDS011;30315;46.072;14.474;2023-06-10T04:27:57;5.82;;;5.20;;
44606;SDS011;30315;46.072;14.474;2023-06-10T04:30:24;5.28;;;4.82;;
44606;SDS011;30315;46.072;14.474;2023-06-10T04:32:51;5.95;;;5.38;;
44606;SDS011;30315;46.072;14.474;2023-06-10T04:35:18;6.45;;;5.95;;
44606;SDS011;30315;46.072;14.474;2023-06-10T04:37:47;5.80;;;5.30;;
44606;SDS011;30315;46.072;14.474;2023-06-10T04:40:15;5.80;;;5.40;;
44606;SDS011;30315;46.072;14.474;2023-06-10T04:42:43;5.75;;;5.25;;
44606;SDS011;30315;46.072;14.474;2023-06-10T04:45:12;5.80;;;5.40;;
44606;SDS011;30315;46.072;14.474;2023-06-10T04:47:40;6.00;;;5.50;;
44606;SDS011;30315;46.072;14.474;2023-06-10T04:50:07;6.20;;;5.72;;
44606;SDS011;30315;46.072;14.474;2023-06-10T04:52:34;6.20;;;5.78;;
44606;SDS011;30315;46.072;14.474;2023-06-10T04:55:01;5.53;;;5.22;;
44606;SDS011;30315;46.072;14.474;2023-06-10T04:57:29;6.18;;;5.78;;
44606;SDS011;30315;46.072;14.474;2023-06-10T04:59:56;5.88;;;5.43;;
44606;SDS011;30315;46.072;14.474;2023-06-10T05:02:23;6.10;;;5.70;;
44606;SDS011;30315;46.072;14.474;2023-06-10T05:04:50;5.38;;;5.05;;
44606;SDS011;30315;46.072;14.474;2023-06-10T05:07:17;5.65;;;5.25;;
44606;SDS011;30315;46.072;14.474;2023-06-10T05:09:44;5.70;;;5.30;;
44606;SDS011;30315;46.072;14.474;2023-06-10T05:12:11;5.93;;;5.53;;
44606;SDS011;30315;46.072;14.474;2023-06-10T05:14:38;5.15;;;4.85;;
44606;SDS011;30315;46.072;14.474;2023-06-10T05:17:05;6.03;;;5.63;;
44606;SDS011;30315;46.072;14.474;2023-06-10T05:19:32;5.85;;;5.45;;
44606;SDS011;30315;46.072;14.474;2023-06-10T05:21:59;6.18;;;5.70;;
44606;SDS011;30315;46.072;14.474;2023-06-10T05:24:26;6.80;;;6.00;;
44606;SDS011;30315;46.072;14.474;2023-06-10T05:26:54;7.03;;;6.07;;
44606;SDS011;30315;46.072;14.474;2023-06-10T05:29:21;8.40;;;6.20;;
44606;SDS011;30315;46.072;14.474;2023-06-10T05:31:48;6.80;;;5.85;;
44606;SDS011;30315;46.072;14.474;2023-06-10T05:34:15;6.60;;;6.10;;
44606;SDS011;30315;46.072;14.474;2023-06-10T05:36:42;6.53;;;5.90;;
44606;SDS011;30315;46.072;14.474;2023-06-10T05:39:09;6.45;;;6.05;;
44606;SDS011;30315;46.072;14.474;2023-06-10T05:41:37;5.97;;;5.47;;
44606;SDS011;30315;46.072;14.474;2023-06-10T05:44:04;6.93;;;6.40;;
44606;SDS011;30315;46.072;14.474;2023-06-10T05:46:31;6.38;;;5.88;;
44606;SDS011;30315;46.072;14.474;2023-06-10T05:49:04;7.30;;;6.50;;
44606;SDS011;30315;46.072;14.474;2023-06-10T05:51:31;6.80;;;6.25;;
44606;SDS011;30315;46.072;14.474;2023-06-10T05:53:58;6.82;;;6.32;;
44606;SDS011;30315;46.072;14.474;2023-06-10T05:56:33;7.30;;;6.80;;
44606;SDS011;30315;46.072;14.474;2023-06-10T05:59:03;7.57;;;6.97;;
44606;SDS011;30315;46.072;14.474;2023-06-10T06:01:31;7.63;;;7.03;;
44606;SDS011;30315;46.072;14.474;2023-06-10T06:03:58;7.97;;;7.18;;
44606;SDS011;30315;46.072;14.474;2023-06-10T06:06:27;11.02;;;9.60;;
44606;SDS011;30315;46.072;14.474;2023-06-10T06:08:54;10.45;;;9.32;;
44606;SDS011;30315;46.072;14.474;2023-06-10T06:11:21;11.48;;;10.38;;
44606;SDS011;30315;46.072;14.474;2023-06-10T06:13:51;12.48;;;10.90;;
44606;SDS011;30315;46.072;14.474;2023-06-10T06:16:19;15.32;;;11.13;;
44606;SDS011;30315;46.072;14.474;2023-06-10T06:18:46;12.63;;;11.32;;
44606;SDS011;30315;46.072;14.474;2023-06-10T06:21:13;15.15;;;12.18;;
44606;SDS011;30315;46.072;14.474;2023-06-10T06:23:40;13.48;;;11.52;;
44606;SDS011;30315;46.072;14.474;2023-06-10T06:26:07;13.68;;;11.75;;
44606;SDS011;30315;46.072;14.474;2023-06-10T06:28:34;12.38;;;10.50;;
44606;SDS011;30315;46.072;14.474;2023-06-10T06:31:01;12.40;;;11.07;;
44606;SDS011;30315;46.072;14.474;2023-06-10T06:33:28;11.32;;;10.13;;
44606;SDS011;30315;46.072;14.474;2023-06-10T06:35:55;12.40;;;11.00;;
44606;SDS011;30315;46.072;14.474;2023-06-10T06:38:22;11.13;;;9.93;;
44606;SDS011;30315;46.072;14.474;2023-06-10T06:40:49;10.82;;;9.80;;
44606;SDS011;30315;46.072;14.474;2023-06-10T06:43:16;11.13;;;9.85;;
44606;SDS011;30315;46.072;14.474;2023-06-10T06:46:18;11.65;;;9.15;;
44606;SDS011;30315;46.072;14.474;2023-06-10T06:48:45;11.07;;;8.90;;
44606;SDS011;30315;46.072;14.474;2023-06-10T06:51:12;9.95;;;8.95;;
44606;SDS011;30315;46.072;14.474;2023-06-10T06:53:39;11.40;;;9.10;;
44606;SDS011;30315;46.072;14.474;2023-06-10T06:56:11;9.40;;;8.40;;
44606;SDS011;30315;46.072;14.474;2023-06-10T06:58:41;11.38;;;8.85;;
44606;SDS011;30315;46.072;14.474;2023-06-10T07:01:15;11.02;;;7.68;;
44606;SDS011;30315;46.072;14.474;2023-06-10T07:03:42;10.52;;;7.93;;
44606;SDS011;30315;46.072;14.474;2023-06-10T07:06:09;12.30;;;8.50;;
44606;SDS011;30315;46.072;14.474;2023-06-10T07:08:36;8.63;;;7.50;;
44606;SDS011;30315;46.072;14.474;2023-06-10T07:11:03;8.10;;;7.40;;
44606;SDS011;30315;46.072;14.474;2023-06-10T07:13:30;8.05;;;7.20;;
44606;SDS011;30315;46.072;14.474;2023-06-10T07:15:57;7.65;;;6.85;;
44606;SDS011;30315;46.072;14.474;2023-06-10T07:18:24;7.50;;;6.80;;
44606;SDS011;30315;46.072;14.474;2023-06-10T07:20:51;7.35;;;6.15;;
44606;SDS011;30315;46.072;14.474;2023-06-10T07:23:18;8.07;;;6.22;;
44606;SDS011;30315;46.072;14.474;2023-06-10T07:25:45;7.60;;;7.00;;
44606;SDS011;30315;46.072;14.474;2023-06-10T07:28:12;8.73;;;6.72;;
44606;SDS011;30315;46.072;14.474;2023-06-10T07:30:39;9.30;;;6.93;;
44606;SDS011;30315;46.072;14.474;2023-06-10T07:33:06;7.25;;;6.22;;
44606;SDS011;30315;46.072;14.474;2023-06-10T07:35:34;6.55;;;5.78;;
44606;SDS011;30315;46.072;14.474;2023-06-10T07:38:01;6.78;;;6.10;;
44606;SDS011;30315;46.072;14.474;2023-06-10T07:40:28;6.40;;;5.90;;
44606;SDS011;30315;46.072;14.474;2023-06-10T07:43:03;13.88;;;7.20;;
44606;SDS011;30315;46.072;14.474;2023-06-10T07:45:46;6.35;;;5.88;;
44606;SDS011;30315;46.072;14.474;2023-06-10T07:48:28;5.97;;;5.25;;
44606;SDS011;30315;46.072;14.474;2023-06-10T07:51:03;7.35;;;4.70;;
44606;SDS011;30315;46.072;14.474;2023-06-10T07:53:30;6.07;;;5.57;;
44606;SDS011;30315;46.072;14.474;2023-06-10T07:55:57;6.60;;;5.90;;
44606;SDS011;30315;46.072;14.474;2023-06-10T07:58:27;6.32;;;5.72;;
44606;SDS011;30315;46.072;14.474;2023-06-10T08:03:24;5.28;;;4.78;;
44606;SDS011;30315;46.072;14.474;2023-06-10T08:05:53;5.03;;;4.63;;
44606;SDS011;30315;46.072;14.474;2023-06-10T08:08:25;5.18;;;4.70;;
44606;SDS011;30315;46.072;14.474;2023-06-10T08:10:52;4.82;;;4.53;;
44606;SDS011;30315;46.072;14.474;2023-06-10T08:13:19;5.28;;;4.80;;
44606;SDS011;30315;46.072;14.474;2023-06-10T08:15:47;6.03;;;5.10;;
44606;SDS011;30315;46.072;14.474;2023-06-10T08:18:17;6.05;;;5.00;;
44606;SDS011;30315;46.072;14.474;2023-06-10T08:20:44;10.00;;;5.70;;
44606;SDS011;30315;46.072;14.474;2023-06-10T08:23:11;5.90;;;5.22;;
44606;SDS011;30315;46.072;14.474;2023-06-10T08:25:38;6.50;;;5.05;;
44606;SDS011;30315;46.072;14.474;2023-06-10T08:28:05;6.72;;;5.20;;
44606;SDS011;30315;46.072;14.474;2023-06-10T08:30:32;5.53;;;5.13;;
44606;SDS011;30315;46.072;14.474;2023-06-10T08:33:05;7.32;;;4.25;;
44606;SDS011;30315;46.072;14.474;2023-06-10T08:35:36;4.53;;;4.22;;
44606;SDS011;30315;46.072;14.474;2023-06-10T08:38:03;5.53;;;5.03;;
44606;SDS011;30315;46.072;14.474;2023-06-10T08:40:30;5.22;;;4.72;;
44606;SDS011;30315;46.072;14.474;2023-06-10T08:43:08;5.93;;;5.35;;
44606;SDS011;30315;46.072;14.474;2023-06-10T08:45:52;5.53;;;4.93;;
44606;SDS011;30315;46.072;14.474;2023-06-10T08:48:24;7.13;;;4.75;;
44606;SDS011;30315;46.072;14.474;2023-06-10T08:50:54;4.63;;;4.32;;
44606;SDS011;30315;46.072;14.474;2023-06-10T08:53:22;5.38;;;4.97;;
44606;SDS011;30315;46.072;14.474;2023-06-10T08:55:52;5.45;;;4.97;;
44606;SDS011;30315;46.072;14.474;2023-06-10T08:58:21;5.68;;;5.25;;
44606;SDS011;30315;46.072;14.474;2023-06-10T09:00:49;6.35;;;4.65;;
44606;SDS011;30315;46.072;14.474;2023-06-10T09:03:25;5.13;;;4.72;;
44606;SDS011;30315;46.072;14.474;2023-06-10T09:05:54;5.10;;;4.70;;
44606;SDS011;30315;46.072;14.474;2023-06-10T09:10:50;5.50;;;5.00;;
44606;SDS011;30315;46.072;14.474;2023-06-10T09:13:17;65.32;;;25.73;;
44606;SDS011;30315;46.072;14.474;2023-06-10T09:15:45;166.43;;;42.90;;
44606;SDS011;30315;46.072;14.474;2023-06-10T09:18:12;94.50;;;30.58;;
44606;SDS011;30315;46.072;14.474;2023-06-10T09:20:39;50.17;;;15.60;;
44606;SDS011;30315;46.072;14.474;2023-06-10T09:23:08;63.72;;;20.13;;
44606;SDS011;30315;46.072;14.474;2023-06-10T09:25:36;52.58;;;17.23;;
44606;SDS011;30315;46.072;14.474;2023-06-10T09:28:04;21.55;;;9.25;;
44606;SDS011;30315;46.072;14.474;2023-06-10T09:30:38;57.72;;;29.08;;
44606;SDS011;30315;46.072;14.474;2023-06-10T09:33:10;39.55;;;22.17;;
44606;SDS011;30315;46.072;14.474;2023-06-10T09:35:44;43.88;;;15.82;;
44606;SDS011;30315;46.072;14.474;2023-06-10T09:38:21;89.65;;;30.40;;
44606;SDS011;30315;46.072;14.474;2023-06-10T09:40:49;51.88;;;21.35;;
44606;SDS011;30315;46.072;14.474;2023-06-10T09:43:20;16.35;;;8.23;;
44606;SDS011;30315;46.072;14.474;2023-06-10T09:45:48;35.92;;;15.18;;
44606;SDS011;30315;46.072;14.474;2023-06-10T09:48:17;31.07;;;13.70;;
44606;SDS011;30315;46.072;14.474;2023-06-10T09:50:44;34.63;;;12.57;;
44606;SDS011;30315;46.072;14.474;2023-06-10T09:53:12;22.25;;;10.35;;
44606;SDS011;30315;46.072;14.474;2023-06-10T09:55:39;38.88;;;15.68;;
44606;SDS011;30315;46.072;14.474;2023-06-10T09:58:08;18.58;;;8.63;;
44606;SDS011;30315;46.072;14.474;2023-06-10T10:00:35;12.90;;;7.80;;
44606;SDS011;30315;46.072;14.474;2023-06-10T10:03:02;29.15;;;10.70;;
44606;SDS011;30315;46.072;14.474;2023-06-10T10:05:29;14.50;;;7.13;;
44606;SDS011;30315;46.072;14.474;2023-06-10T10:07:57;10.00;;;5.78;;
44606;SDS011;30315;46.072;14.474;2023-06-10T10:10:24;7.78;;;5.60;;
44606;SDS011;30315;46.072;14.474;2023-06-10T10:12:53;16.08;;;7.03;;
44606;SDS011;30315;46.072;14.474;2023-06-10T10:15:25;9.15;;;5.70;;
44606;SDS011;30315;46.072;14.474;2023-06-10T10:18:01;9.40;;;6.10;;
44606;SDS011;30315;46.072;14.474;2023-06-10T10:20:46;18.42;;;7.32;;
44606;SDS011;30315;46.072;14.474;2023-06-10T10:23:18;7.88;;;4.93;;
44606;SDS011;30315;46.072;14.474;2023-06-10T10:25:51;10.20;;;5.95;;
44606;SDS011;30315;46.072;14.474;2023-06-10T10:28:21;14.13;;;6.20;;
44606;SDS011;30315;46.072;14.474;2023-06-10T10:30:58;13.88;;;6.25;;
44606;SDS011;30315;46.072;14.474;2023-06-10T10:33:45;5.95;;;4.53;;
44606;SDS011;30315;46.072;14.474;2023-06-10T10:36:51;4.93;;;4.40;;
44606;SDS011;30315;46.072;14.474;2023-06-10T10:39:25;10.68;;;4.18;;
44606;SDS011;30315;46.072;14.474;2023-06-10T10:41:54;7.78;;;4.53;;
44606;SDS011;30315;46.072;14.474;2023-06-10T10:44:23;6.22;;;4.70;;
44606;SDS011;30315;46.072;14.474;2023-06-10T10:46:51;4.40;;;3.72;;
44606;SDS011;30315;46.072;14.474;2023-06-10T10:49:18;4.22;;;3.83;;
44606;SDS011;30315;46.072;14.474;2023-06-10T10:51:56;4.90;;;4.20;;
44606;SDS011;30315;46.072;14.474;2023-06-10T10:54:34;4.30;;;4.00;;
44606;SDS011;30315;46.072;14.474;2023-06-10T10:57:10;3.92;;;3.60;;
44606;SDS011;30315;46.072;14.474;2023-06-10T11:02:35;3.95;;;3.75;;
44606;SDS011;30315;46.072;14.474;2023-06-10T11:05:42;3.92;;;3.70;;
44606;SDS011;30315;46.072;14.474;2023-06-10T11:10:59;3.53;;;3.30;;
44606;SDS011;30315;46.072;14.474;2023-06-10T11:13:27;3.90;;;3.60;;
44606;SDS011;30315;46.072;14.474;2023-06-10T11:16:00;4.03;;;3.72;;
44606;SDS011;30315;46.072;14.474;2023-06-10T11:18:40;3.92;;;3.70;;
44606;SDS011;30315;46.072;14.474;2023-06-10T11:21:12;4.10;;;3.80;;
44606;SDS011;30315;46.072;14.474;2023-06-10T11:23:43;3.60;;;3.40;;
44606;SDS011;30315;46.072;14.474;2023-06-10T11:29:05;3.47;;;3.28;;
44606;SDS011;30315;46.072;14.474;2023-06-10T11:31:44;4.13;;;3.58;;
44606;SDS011;30315;46.072;14.474;2023-06-10T11:34:13;3.87;;;3.60;;
44606;SDS011;30315;46.072;14.474;2023-06-10T11:36:42;9.02;;;3.83;;
44606;SDS011;30315;46.072;14.474;2023-06-10T11:39:11;4.07;;;3.70;;
44606;SDS011;30315;46.072;14.474;2023-06-10T11:41:39;12.48;;;4.13;;
44606;SDS011;30315;46.072;14.474;2023-06-10T11:44:10;10.75;;;3.85;;
44606;SDS011;30315;46.072;14.474;2023-06-10T11:46:45;3.78;;;3.58;;
44606;SDS011;30315;46.072;14.474;2023-06-10T11:49:14;10.07;;;3.95;;
44606;SDS011;30315;46.072;14.474;2023-06-10T11:51:41;5.97;;;4.10;;
44606;SDS011;30315;46.072;14.474;2023-06-10T11:54:15;4.50;;;4.10;;
44606;SDS011;30315;46.072;14.474;2023-06-10T11:56:43;4.55;;;4.07;;
44606;SDS011;30315;46.072;14.474;2023-06-10T11:59:10;10.52;;;4.07;;
44606;SDS011;30315;46.072;14.474;2023-06-10T12:01:42;4.07;;;3.78;;
44606;SDS011;30315;46.072;14.474;2023-06-10T12:04:11;4.20;;;3.95;;
44606;SDS011;30315;46.072;14.474;2023-06-10T12:06:43;5.15;;;4.07;;
44606;SDS011;30315;46.072;14.474;2023-06-10T12:09:14;4.40;;;4.00;;
44606;SDS011;30315;46.072;14.474;2023-06-10T12:11:52;4.53;;;4.13;;
44606;SDS011;30315;46.072;14.474;2023-06-10T12:19:59;4.38;;;4.15;;
44606;SDS011;30315;46.072;14.474;2023-06-10T12:22:37;4.93;;;4.53;;
44606;SDS011;30315;46.072;14.474;2023-06-10T12:25:05;5.00;;;4.60;;
44606;SDS011;30315;46.072;14.474;2023-06-10T12:27:34;5.23;;;4.80;;
44606;SDS011;30315;46.072;14.474;2023-06-10T12:30:04;5.13;;;4.77;;
44606;SDS011;30315;46.072;14.474;2023-06-10T12:35:03;4.82;;;4.30;;
44606;SDS011;30315;46.072;14.474;2023-06-10T12:37:31;5.28;;;4.40;;
44606;SDS011;30315;46.072;14.474;2023-06-10T12:40:04;4.63;;;4.30;;
44606;SDS011;30315;46.072;14.474;2023-06-10T12:42:37;4.72;;;4.43;;
44606;SDS011;30315;46.072;14.474;2023-06-10T12:45:05;4.70;;;4.28;;
44606;SDS011;30315;46.072;14.474;2023-06-10T12:47:36;5.10;;;4.70;;
44606;SDS011;30315;46.072;14.474;2023-06-10T12:50:08;5.18;;;4.68;;
44606;SDS011;30315;46.072;14.474;2023-06-10T12:52:35;6.00;;;4.70;;
44606;SDS011;30315;46.072;14.474;2023-06-10T12:55:02;4.95;;;4.65;;
44606;SDS011;30315;46.072;14.474;2023-06-10T12:57:30;7.00;;;4.47;;
44606;SDS011;30315;46.072;14.474;2023-06-10T12:59:57;4.65;;;4.35;;
44606;SDS011;30315;46.072;14.474;2023-06-10T13:02:30;4.80;;;4.40;;
44606;SDS011;30315;46.072;14.474;2023-06-10T13:04:58;5.22;;;4.82;;
44606;SDS011;30315;46.072;14.474;2023-06-10T13:07:25;4.88;;;4.57;;
44606;SDS011;30315;46.072;14.474;2023-06-10T13:09:52;4.88;;;4.47;;
44606;SDS011;30315;46.072;14.474;2023-06-10T13:12:20;4.65;;;4.45;;
44606;SDS011;30315;46.072;14.474;2023-06-10T13:14:59;4.97;;;4.45;;
44606;SDS011;30315;46.072;14.474;2023-06-10T13:17:26;5.30;;;5.00;;
44606;SDS011;30315;46.072;14.474;2023-06-10T13:19:53;5.10;;;4.70;;
44606;SDS011;30315;46.072;14.474;2023-06-10T13:22:20;4.68;;;4.38;;
44606;SDS011;30315;46.072;14.474;2023-06-10T13:24:48;5.72;;;5.40;;
44606;SDS011;30315;46.072;14.474;2023-06-10T13:27:14;5.07;;;4.78;;
44606;SDS011;30315;46.072;14.474;2023-06-10T13:29:41;5.43;;;5.00;;
44606;SDS011;30315;46.072;14.474;2023-06-10T13:32:08;4.90;;;4.60;;
44606;SDS011;30315;46.072;14.474;2023-06-10T13:34:35;5.20;;;4.80;;
44606;SDS011;30315;46.072;14.474;2023-06-10T13:37:02;5.13;;;4.82;;
44606;SDS011;30315;46.072;14.474;2023-06-10T13:39:31;4.47;;;4.18;;
44606;SDS011;30315;46.072;14.474;2023-06-10T13:41:58;4.60;;;4.30;;
44606;SDS011;30315;46.072;14.474;2023-06-10T13:44:25;4.80;;;4.50;;
44606;SDS011;30315;46.072;14.474;2023-06-10T13:46:52;4.68;;;4.43;;
44606;SDS011;30315;46.072;14.474;2023-06-10T13:49:19;4.88;;;4.57;;
44606;SDS011;30315;46.072;14.474;2023-06-10T13:51:47;4.63;;;4.40;;
44606;SDS011;30315;46.072;14.474;2023-06-10T13:54:14;5.07;;;4.78;;
44606;SDS011;30315;46.072;14.474;2023-06-10T13:56:42;5.15;;;4.55;;
44606;SDS011;30315;46.072;14.474;2023-06-10T13:59:09;4.80;;;4.50;;
44606;SDS011;30315;46.072;14.474;2023-06-10T14:01:36;4.40;;;4.10;;
44606;SDS011;30315;46.072;14.474;2023-06-10T14:04:04;4.35;;;4.05;;
44606;SDS011;30315;46.072;14.474;2023-06-10T14:06:31;4.60;;;4.30;;
44606;SDS011;30315;46.072;14.474;2023-06-10T14:09:00;4.65;;;4.35;;
44606;SDS011;30315;46.072;14.474;2023-06-10T14:11:27;5.03;;;4.72;;
44606;SDS011;30315;46.072;14.474;2023-06-10T14:13:54;4.88;;;4.55;;
44606;SDS011;30315;46.072;14.474;2023-06-10T14:16:24;5.28;;;4.65;;
44606;SDS011;30315;46.072;14.474;2023-06-10T14:18:51;5.32;;;4.93;;
44606;SDS011;30315;46.072;14.474;2023-06-10T14:21:18;5.13;;;4.70;;
44606;SDS011;30315;46.072;14.474;2023-06-10T14:23:45;4.72;;;4.43;;
44606;SDS011;30315;46.072;14.474;2023-06-10T14:26:12;5.05;;;4.68;;
44606;SDS011;30315;46.072;14.474;2023-06-10T14:28:39;5.47;;;5.07;;
44606;SDS011;30315;46.072;14.474;2023-06-10T14:31:06;4.63;;;4.32;;
44606;SDS011;30315;46.072;14.474;2023-06-10T14:33:33;4.45;;;4.13;;
44606;SDS011;30315;46.072;14.474;2023-06-10T14:36:01;4.20;;;3.95;;
44606;SDS011;30315;46.072;14.474;2023-06-10T14:38:28;4.30;;;3.90;;
44606;SDS011;30315;46.072;14.474;2023-06-10T14:40:55;4.00;;;3.80;;
44606;SDS011;30315;46.072;14.474;2023-06-10T14:43:22;4.82;;;4.20;;
44606;SDS011;30315;46.072;14.474;2023-06-10T14:45:49;4.05;;;3.85;;
44606;SDS011;30315;46.072;14.474;2023-06-10T14:48:17;4.47;;;4.17;;
44606;SDS011;30315;46.072;14.474;2023-06-10T14:50:44;4.10;;;3.90;;
44606;SDS011;30315;46.072;14.474;2023-06-10T14:53:17;4.30;;;4.00;;
44606;SDS011;30315;46.072;14.474;2023-06-10T14:55:44;4.57;;;4.28;;
44606;SDS011;30315;46.072;14.474;2023-06-10T14:58:11;4.20;;;3.90;;
44606;SDS011;30315;46.072;14.474;2023-06-10T15:00:38;3.97;;;3.70;;
44606;SDS011;30315;46.072;14.474;2023-06-10T15:03:05;3.85;;;3.65;;
44606;SDS011;30315;46.072;14.474;2023-06-10T15:05:32;3.80;;;3.30;;
44606;SDS011;30315;46.072;14.474;2023-06-10T15:08:01;3.45;;;3.25;;
44606;SDS011;30315;46.072;14.474;2023-06-10T15:10:28;3.60;;;3.40;;
44606;SDS011;30315;46.072;14.474;2023-06-10T15:12:55;3.70;;;3.42;;
44606;SDS011;30315;46.072;14.474;2023-06-10T15:15:23;3.40;;;3.20;;
44606;SDS011;30315;46.072;14.474;2023-06-10T15:17:53;3.70;;;3.50;;